createdAt,value
2022-08-11T00:00:02.466Z,27.51
2022-08-11T00:01:02.465Z,27.54
2022-08-11T00:02:02.466Z,27.55
2022-08-11T00:03:02.542Z,27.59
2022-08-11T00:04:02.481Z,27.51
2022-08-11T00:05:02.475Z,27.51
2022-08-11T00:06:02.469Z,27.51
2022-08-11T00:07:02.468Z,27.55
2022-08-11T00:08:02.469Z,27.54
2022-08-11T00:09:02.467Z,27.51
2022-08-11T00:10:02.477Z,27.50
2022-08-11T00:11:02.478Z,27.51
2022-08-11T00:12:02.474Z,27.49
2022-08-11T00:13:02.472Z,27.50
2022-08-11T00:14:02.473Z,27.55
2022-08-11T00:15:02.472Z,27.51
2022-08-11T00:16:02.474Z,27.54
2022-08-11T00:17:02.473Z,27.50
2022-08-11T00:18:02.473Z,27.44
2022-08-11T00:19:02.474Z,27.50
2022-08-11T00:20:11.686Z,27.55
2022-08-11T00:21:02.474Z,27.46
2022-08-11T00:22:04.797Z,27.50
2022-08-11T00:23:02.475Z,27.51
2022-08-11T00:24:02.478Z,27.47
2022-08-11T00:25:02.975Z,27.49
2022-08-11T00:26:02.477Z,27.46
2022-08-11T00:27:02.477Z,27.47
2022-08-11T00:28:02.479Z,27.46
2022-08-11T00:29:02.478Z,27.51
2022-08-11T00:30:02.494Z,27.47
2022-08-11T00:31:04.422Z,27.49
2022-08-11T00:32:02.480Z,27.49
2022-08-11T00:33:02.479Z,27.51
2022-08-11T00:34:02.481Z,27.46
2022-08-11T00:35:54.320Z,27.50
2022-08-11T00:36:02.482Z,27.46
2022-08-11T00:37:02.482Z,27.50
2022-08-11T00:38:02.484Z,27.50
2022-08-11T00:39:02.486Z,27.49
2022-08-11T00:40:02.620Z,27.46
2022-08-11T00:41:02.491Z,27.47
2022-08-11T00:42:02.490Z,27.49
2022-08-11T00:43:02.484Z,27.50
2022-08-11T00:44:02.487Z,27.51
2022-08-11T00:45:02.485Z,27.49
2022-08-11T00:46:02.489Z,27.49
2022-08-11T00:47:02.489Z,27.49
2022-08-11T00:48:02.495Z,27.47
2022-08-11T00:49:02.487Z,27.46
2022-08-11T00:50:02.489Z,27.55
2022-08-11T00:51:02.489Z,27.54
2022-08-11T00:52:05.487Z,27.46
2022-08-11T00:53:02.488Z,27.49
2022-08-11T00:54:02.491Z,27.40
2022-08-11T00:55:02.491Z,27.46
2022-08-11T00:56:02.493Z,27.46
2022-08-11T00:57:02.492Z,27.40
2022-08-11T00:58:02.499Z,27.43
2022-08-11T00:59:02.498Z,27.44
2022-08-11T01:00:03.796Z,27.37
2022-08-11T01:01:02.596Z,27.40
2022-08-11T01:02:02.501Z,27.44
2022-08-11T01:03:02.496Z,27.41
2022-08-11T01:04:02.495Z,27.41
2022-08-11T01:05:02.507Z,27.41
2022-08-11T01:06:02.985Z,27.47
2022-08-11T01:07:02.496Z,27.50
2022-08-11T01:08:03.656Z,27.37
2022-08-11T01:09:02.498Z,27.41
2022-08-11T01:10:06.961Z,27.46
2022-08-11T01:11:02.499Z,27.41
2022-08-11T01:12:02.523Z,27.46
2022-08-11T01:13:02.499Z,27.47
2022-08-11T01:14:02.500Z,27.40
2022-08-11T01:15:02.500Z,27.41
2022-08-11T01:16:02.502Z,27.46
2022-08-11T01:17:02.501Z,27.46
2022-08-11T01:18:02.503Z,27.40
2022-08-11T01:19:02.502Z,27.39
2022-08-11T01:20:38.743Z,27.40
2022-08-11T01:21:02.503Z,27.43
2022-08-11T01:22:02.512Z,27.43
2022-08-11T01:23:02.507Z,27.41
2022-08-11T01:24:02.506Z,27.41
2022-08-11T01:25:02.504Z,27.37
2022-08-11T01:26:02.505Z,27.41
2022-08-11T01:27:02.504Z,27.41
2022-08-11T01:28:02.509Z,27.43
2022-08-11T01:29:02.506Z,27.40
2022-08-11T01:30:02.518Z,27.37
2022-08-11T01:31:02.510Z,27.40
2022-08-11T01:32:02.514Z,27.46
2022-08-11T01:33:02.508Z,27.32
2022-08-11T01:34:02.517Z,27.44
2022-08-11T01:35:02.509Z,27.46
2022-08-11T01:36:02.512Z,27.41
2022-08-11T01:37:02.510Z,27.40
2022-08-11T01:38:02.511Z,27.41
2022-08-11T01:39:02.512Z,27.41
2022-08-11T01:40:02.512Z,27.43
2022-08-11T01:41:02.510Z,27.39
2022-08-11T01:42:02.512Z,27.39
2022-08-11T01:43:02.520Z,27.41
2022-08-11T01:44:02.515Z,27.41
2022-08-11T01:45:02.516Z,27.44
2022-08-11T01:46:02.514Z,27.41
2022-08-11T01:47:02.514Z,27.43
2022-08-11T01:48:02.515Z,27.37
2022-08-11T01:50:05.180Z,27.44
2022-08-11T01:50:07.663Z,27.44
2022-08-11T01:51:02.524Z,27.46
2022-08-11T01:52:02.518Z,27.40
2022-08-11T01:53:02.517Z,27.49
2022-08-11T01:54:02.519Z,27.37
2022-08-11T01:55:02.519Z,27.43
2022-08-11T01:56:02.519Z,27.41
2022-08-11T01:57:02.518Z,27.39
2022-08-11T01:58:02.521Z,27.41
2022-08-11T01:59:02.519Z,27.41
2022-08-11T02:00:02.522Z,27.39
2022-08-11T02:01:02.585Z,27.40
2022-08-11T02:02:02.523Z,27.41
2022-08-11T02:03:02.528Z,27.37
2022-08-11T02:04:02.522Z,27.41
2022-08-11T02:05:02.522Z,27.44
2022-08-11T02:06:02.526Z,27.41
2022-08-11T02:07:02.523Z,27.44
2022-08-11T02:08:02.529Z,27.40
2022-08-11T02:09:02.535Z,27.39
2022-08-11T02:10:02.527Z,27.41
2022-08-11T02:11:02.525Z,27.39
2022-08-11T02:12:02.652Z,27.44
2022-08-11T02:13:02.526Z,27.36
2022-08-11T02:14:02.531Z,27.40
2022-08-11T02:15:05.374Z,27.37
2022-08-11T02:16:02.528Z,27.39
2022-08-11T02:17:02.530Z,27.44
2022-08-11T02:18:02.530Z,27.40
2022-08-11T02:19:02.529Z,27.37
2022-08-11T02:20:02.529Z,27.49
2022-08-11T02:21:02.532Z,27.34
2022-08-11T02:22:02.530Z,27.49
2022-08-11T02:23:02.531Z,27.40
2022-08-11T02:24:04.797Z,27.43
2022-08-11T02:25:02.535Z,27.49
2022-08-11T02:26:02.532Z,27.37
2022-08-11T02:27:02.534Z,27.40
2022-08-11T02:28:02.533Z,27.46
2022-08-11T02:29:02.533Z,27.41
2022-08-11T02:30:02.585Z,27.47
2022-08-11T02:31:02.533Z,27.37
2022-08-11T02:32:23.748Z,27.41
2022-08-11T02:33:02.537Z,27.43
2022-08-11T02:34:02.534Z,27.37
2022-08-11T02:35:02.545Z,27.40
2022-08-11T02:36:02.536Z,27.39
2022-08-11T02:37:02.536Z,27.47
2022-08-11T02:38:02.539Z,27.46
2022-08-11T02:39:02.538Z,27.41
2022-08-11T02:40:02.540Z,27.50
2022-08-11T02:41:02.538Z,27.50
2022-08-11T02:42:02.540Z,27.39
2022-08-11T02:43:02.540Z,27.47
2022-08-11T02:44:02.540Z,27.46
2022-08-11T02:45:02.541Z,27.41
2022-08-11T02:46:02.541Z,27.40
2022-08-11T02:47:02.543Z,27.50
2022-08-11T02:48:02.543Z,27.40
2022-08-11T02:49:02.543Z,27.41
2022-08-11T02:50:07.215Z,27.41
2022-08-11T02:51:02.543Z,27.39
2022-08-11T02:52:02.544Z,27.49
2022-08-11T02:53:02.545Z,27.40
2022-08-11T02:54:02.543Z,27.40
2022-08-11T02:55:02.549Z,27.40
2022-08-11T02:56:02.544Z,27.39
2022-08-11T02:57:02.546Z,27.43
2022-08-11T02:58:02.546Z,27.40
2022-08-11T02:59:02.547Z,27.44
2022-08-11T03:00:02.547Z,27.37
2022-08-11T03:01:02.548Z,27.44
2022-08-11T03:02:05.305Z,27.40
2022-08-11T03:03:02.554Z,27.40
2022-08-11T03:04:02.549Z,27.37
2022-08-11T03:05:02.549Z,27.46
2022-08-11T03:06:02.550Z,27.46
2022-08-11T03:07:02.551Z,27.32
2022-08-11T03:08:02.551Z,27.43
2022-08-11T03:09:02.551Z,27.40
2022-08-11T03:10:02.552Z,27.43
2022-08-11T03:11:02.554Z,27.40
2022-08-11T03:12:02.552Z,27.43
2022-08-11T03:13:02.554Z,27.49
2022-08-11T03:14:02.553Z,27.41
2022-08-11T03:15:02.557Z,27.40
2022-08-11T03:16:02.714Z,27.47
2022-08-11T03:17:02.557Z,27.44
2022-08-11T03:18:02.555Z,27.41
2022-08-11T03:19:02.559Z,27.32
2022-08-11T03:20:02.555Z,27.47
2022-08-11T03:21:02.556Z,27.46
2022-08-11T03:22:03.680Z,27.41
2022-08-11T03:23:02.557Z,27.43
2022-08-11T03:24:02.557Z,27.40
2022-08-11T03:25:02.557Z,27.40
2022-08-11T03:26:02.558Z,27.41
2022-08-11T03:27:02.561Z,27.43
2022-08-11T03:28:02.794Z,27.47
2022-08-11T03:29:02.561Z,27.43
2022-08-11T03:30:02.561Z,27.39
2022-08-11T03:31:02.564Z,27.44
2022-08-11T03:32:02.562Z,27.44
2022-08-11T03:33:02.562Z,27.43
2022-08-11T03:34:06.250Z,27.49
2022-08-11T03:35:02.564Z,27.46
2022-08-11T03:36:02.566Z,27.49
2022-08-11T03:37:16.059Z,27.40
2022-08-11T03:38:02.565Z,27.40
2022-08-11T03:39:02.565Z,27.41
2022-08-11T03:40:02.668Z,27.43
2022-08-11T03:41:02.567Z,27.44
2022-08-11T03:42:06.773Z,27.36
2022-08-11T03:43:02.566Z,27.39
2022-08-11T03:44:02.566Z,27.40
2022-08-11T03:45:02.567Z,27.40
2022-08-11T03:46:02.567Z,27.41
2022-08-11T03:47:02.568Z,27.41
2022-08-11T03:48:02.569Z,27.41
2022-08-11T03:49:02.569Z,27.44
2022-08-11T03:50:02.568Z,27.44
2022-08-11T03:51:02.571Z,27.43
2022-08-11T03:52:02.569Z,27.40
2022-08-11T03:53:02.571Z,27.44
2022-08-11T03:54:02.569Z,27.39
2022-08-11T03:55:02.572Z,27.46
2022-08-11T03:56:02.571Z,27.44
2022-08-11T03:57:02.572Z,27.50
2022-08-11T03:58:02.572Z,27.46
2022-08-11T03:59:02.573Z,27.40
2022-08-11T04:00:02.575Z,27.41
2022-08-11T04:01:02.574Z,27.41
2022-08-11T04:02:02.623Z,27.44
2022-08-11T04:03:02.575Z,27.41
2022-08-11T04:04:02.574Z,27.41
2022-08-11T04:05:02.574Z,27.40
2022-08-11T04:06:02.578Z,27.43
2022-08-11T04:07:02.576Z,27.44
2022-08-11T04:08:02.577Z,27.44
2022-08-11T04:09:02.584Z,27.46
2022-08-11T04:10:02.577Z,27.46
2022-08-11T04:11:02.579Z,27.43
2022-08-11T04:12:02.577Z,27.49
2022-08-11T04:13:02.578Z,27.49
2022-08-11T04:14:02.578Z,27.39
2022-08-11T04:15:02.579Z,27.40
2022-08-11T04:16:11.464Z,27.44
2022-08-11T04:17:02.581Z,27.46
2022-08-11T04:18:02.580Z,27.41
2022-08-11T04:19:02.583Z,27.43
2022-08-11T04:20:02.581Z,27.41
2022-08-11T04:21:02.582Z,27.44
2022-08-11T04:22:02.582Z,27.39
2022-08-11T04:23:02.585Z,27.43
2022-08-11T04:24:33.353Z,27.46
2022-08-11T04:25:02.584Z,27.37
2022-08-11T04:26:02.583Z,27.51
2022-08-11T04:27:02.584Z,27.41
2022-08-11T04:28:02.585Z,27.41
2022-08-11T04:29:02.585Z,27.50
2022-08-11T04:30:04.003Z,27.46
2022-08-11T04:31:02.588Z,27.41
2022-08-11T04:32:02.587Z,27.47
2022-08-11T04:33:02.587Z,27.46
2022-08-11T04:34:02.587Z,27.47
2022-08-11T04:35:02.588Z,27.49
2022-08-11T04:36:02.591Z,27.43
2022-08-11T04:37:02.589Z,27.40
2022-08-11T04:38:02.588Z,27.41
2022-08-11T04:39:02.590Z,27.39
2022-08-11T04:40:02.591Z,27.47
2022-08-11T04:41:02.590Z,27.41
2022-08-11T04:42:02.590Z,27.47
2022-08-11T04:43:02.592Z,27.41
2022-08-11T04:44:06.336Z,27.39
2022-08-11T04:45:02.597Z,27.40
2022-08-11T04:46:02.597Z,27.39
2022-08-11T04:47:02.593Z,27.43
2022-08-11T04:48:04.610Z,27.47
2022-08-11T04:49:02.594Z,27.41
2022-08-11T04:50:02.594Z,27.46
2022-08-11T04:51:16.315Z,27.37
2022-08-11T04:52:02.594Z,27.41
2022-08-11T04:53:02.596Z,27.37
2022-08-11T04:54:02.597Z,27.39
2022-08-11T04:55:02.597Z,27.39
2022-08-11T04:56:02.597Z,27.46
2022-08-11T04:57:02.609Z,27.41
2022-08-11T04:58:02.596Z,27.43
2022-08-11T04:59:02.600Z,27.43
2022-08-11T05:00:02.598Z,27.41
2022-08-11T05:01:02.601Z,27.39
2022-08-11T05:02:02.631Z,27.43
2022-08-11T05:03:02.600Z,27.44
2022-08-11T05:04:02.600Z,27.46
2022-08-11T05:05:02.606Z,27.41
2022-08-11T05:06:02.600Z,27.46
2022-08-11T05:07:02.602Z,27.43
2022-08-11T05:08:02.602Z,27.41
2022-08-11T05:09:02.602Z,27.40
2022-08-11T05:10:02.609Z,27.39
2022-08-11T05:11:02.604Z,27.36
2022-08-11T05:12:02.622Z,27.40
2022-08-11T05:13:02.604Z,27.46
2022-08-11T05:14:02.606Z,27.39
2022-08-11T05:15:02.608Z,27.44
2022-08-11T05:16:02.605Z,27.43
2022-08-11T05:17:02.606Z,27.43
2022-08-11T05:18:02.605Z,27.46
2022-08-11T05:19:02.608Z,27.40
2022-08-11T05:20:02.608Z,27.50
2022-08-11T05:21:05.037Z,27.46
2022-08-11T05:22:02.608Z,27.49
2022-08-11T05:23:02.613Z,27.46
2022-08-11T05:24:02.610Z,27.50
2022-08-11T05:25:02.609Z,27.44
2022-08-11T05:26:44.597Z,27.47
2022-08-11T05:27:02.611Z,27.44
2022-08-11T05:28:02.612Z,27.43
2022-08-11T05:29:20.186Z,27.47
2022-08-11T05:30:02.611Z,27.39
2022-08-11T05:31:02.613Z,27.41
2022-08-11T05:32:02.617Z,27.47
2022-08-11T05:33:02.709Z,27.39
2022-08-11T05:34:02.614Z,27.49
2022-08-11T05:35:02.616Z,27.44
2022-08-11T05:36:03.258Z,27.40
2022-08-11T05:37:25.070Z,27.43
2022-08-11T05:38:02.614Z,27.49
2022-08-11T05:39:02.616Z,27.43
2022-08-11T05:40:02.657Z,27.40
2022-08-11T05:41:02.617Z,27.47
2022-08-11T05:42:02.617Z,27.50
2022-08-11T05:43:02.618Z,27.37
2022-08-11T05:44:21.761Z,27.49
2022-08-11T05:45:02.619Z,27.36
2022-08-11T05:46:05.456Z,27.43
2022-08-11T05:47:02.619Z,27.43
2022-08-11T05:48:02.619Z,27.37
2022-08-11T05:49:02.621Z,27.37
2022-08-11T05:50:02.622Z,27.36
2022-08-11T05:51:02.622Z,27.41
2022-08-11T05:52:05.443Z,27.40
2022-08-11T05:53:02.621Z,27.43
2022-08-11T05:54:02.622Z,27.41
2022-08-11T05:55:06.017Z,27.39
2022-08-11T05:56:03.879Z,27.37
2022-08-11T05:57:02.624Z,27.43
2022-08-11T05:58:02.625Z,27.37
2022-08-11T05:59:02.627Z,27.47
2022-08-11T06:00:02.627Z,27.44
2022-08-11T06:01:02.626Z,27.43
2022-08-11T06:02:02.798Z,27.44
2022-08-11T06:03:02.628Z,27.43
2022-08-11T06:04:02.628Z,27.46
2022-08-11T06:05:02.627Z,27.41
2022-08-11T06:06:02.627Z,27.49
2022-08-11T06:07:02.629Z,27.43
2022-08-11T06:08:02.629Z,27.41
2022-08-11T06:09:02.629Z,27.44
2022-08-11T06:10:02.631Z,27.49
2022-08-11T06:11:02.630Z,27.50
2022-08-11T06:12:02.631Z,27.49
2022-08-11T06:13:02.631Z,27.41
2022-08-11T06:14:02.630Z,27.46
2022-08-11T06:15:02.632Z,27.44
2022-08-11T06:16:06.831Z,27.43
2022-08-11T06:17:02.635Z,27.49
2022-08-11T06:18:02.633Z,27.43
2022-08-11T06:19:02.634Z,27.40
2022-08-11T06:20:07.279Z,27.41
2022-08-11T06:21:02.635Z,27.39
2022-08-11T06:22:02.634Z,27.46
2022-08-11T06:23:02.637Z,27.47
2022-08-11T06:24:02.639Z,27.39
2022-08-11T06:25:02.690Z,27.43
2022-08-11T06:26:02.635Z,27.41
2022-08-11T06:27:12.249Z,27.49
2022-08-11T06:28:02.637Z,27.44
2022-08-11T06:29:02.640Z,27.43
2022-08-11T06:30:02.637Z,27.49
2022-08-11T06:31:02.639Z,27.41
2022-08-11T06:32:02.640Z,27.46
2022-08-11T06:33:02.646Z,27.46
2022-08-11T06:34:02.641Z,27.46
2022-08-11T06:35:02.644Z,27.41
2022-08-11T06:36:02.640Z,27.41
2022-08-11T06:37:02.641Z,27.41
2022-08-11T06:38:02.651Z,27.49
2022-08-11T06:39:02.644Z,27.43
2022-08-11T06:40:02.643Z,27.47
2022-08-11T06:41:02.643Z,27.51
2022-08-11T06:42:02.644Z,27.46
2022-08-11T06:43:02.644Z,27.43
2022-08-11T06:44:05.335Z,27.46
2022-08-11T06:45:02.647Z,27.46
2022-08-11T06:46:02.645Z,27.44
2022-08-11T06:47:02.647Z,27.50
2022-08-11T06:48:02.646Z,27.43
2022-08-11T06:49:02.647Z,27.37
2022-08-11T06:50:02.654Z,27.34
2022-08-11T06:51:02.648Z,27.41
2022-08-11T06:52:02.834Z,27.49
2022-08-11T06:53:02.649Z,27.41
2022-08-11T06:54:04.843Z,27.41
2022-08-11T06:55:02.649Z,27.49
2022-08-11T06:56:02.650Z,27.46
2022-08-11T06:57:31.601Z,27.50
2022-08-11T06:58:02.651Z,27.41
2022-08-11T06:59:02.654Z,27.40
2022-08-11T07:00:02.666Z,27.41
2022-08-11T07:01:02.753Z,27.46
2022-08-11T07:02:02.765Z,27.43
2022-08-11T07:03:02.653Z,27.37
2022-08-11T07:04:02.660Z,27.43
2022-08-11T07:05:02.658Z,27.51
2022-08-11T07:06:02.656Z,27.37
2022-08-11T07:07:02.654Z,27.44
2022-08-11T07:08:34.175Z,27.39
2022-08-11T07:09:02.655Z,27.37
2022-08-11T07:10:02.657Z,27.43
2022-08-11T07:11:02.656Z,27.43
2022-08-11T07:12:02.658Z,27.43
2022-08-11T07:13:02.659Z,27.39
2022-08-11T07:14:02.659Z,27.44
2022-08-11T07:15:02.664Z,27.44
2022-08-11T07:16:13.121Z,27.50
2022-08-11T07:17:02.660Z,27.41
2022-08-11T07:18:02.662Z,27.44
2022-08-11T07:19:02.659Z,27.40
2022-08-11T07:20:02.667Z,27.49
2022-08-11T07:21:02.665Z,27.40
2022-08-11T07:22:04.086Z,27.49
2022-08-11T07:23:02.662Z,27.41
2022-08-11T07:24:02.663Z,27.39
2022-08-11T07:25:03.579Z,27.39
2022-08-11T07:26:02.665Z,27.39
2022-08-11T07:27:02.672Z,27.41
2022-08-11T07:28:02.665Z,27.47
2022-08-11T07:29:02.663Z,27.37
2022-08-11T07:30:02.668Z,27.37
2022-08-11T07:31:02.666Z,27.39
2022-08-11T07:32:02.679Z,27.44
2022-08-11T07:33:02.666Z,27.37
2022-08-11T07:34:07.618Z,27.44
2022-08-11T07:35:02.668Z,27.43
2022-08-11T07:36:02.669Z,27.40
2022-08-11T07:37:02.668Z,27.46
2022-08-11T07:38:04.803Z,27.40
2022-08-11T07:39:02.669Z,27.44
2022-08-11T07:40:02.671Z,27.39
2022-08-11T07:41:02.669Z,27.39
2022-08-11T07:42:02.670Z,27.47
2022-08-11T07:43:02.678Z,27.40
2022-08-11T07:44:02.676Z,27.41
2022-08-11T07:45:02.671Z,27.43
2022-08-11T07:46:02.772Z,27.40
2022-08-11T07:47:02.673Z,27.39
2022-08-11T07:48:02.677Z,27.46
2022-08-11T07:49:02.673Z,27.39
2022-08-11T07:50:02.677Z,27.44
2022-08-11T07:51:02.674Z,27.50
2022-08-11T07:52:02.682Z,27.46
2022-08-11T07:53:02.692Z,27.40
2022-08-11T07:54:07.670Z,27.40
2022-08-11T07:55:02.676Z,27.39
2022-08-11T07:56:02.680Z,27.39
2022-08-11T07:57:08.924Z,27.44
2022-08-11T07:58:19.603Z,27.50
2022-08-11T07:59:08.106Z,27.40
2022-08-11T08:00:04.734Z,27.43
2022-08-11T08:01:02.856Z,27.43
2022-08-11T08:02:02.806Z,27.39
2022-08-11T08:03:02.680Z,27.51
2022-08-11T08:04:02.683Z,27.44
2022-08-11T08:05:02.679Z,27.39
2022-08-11T08:06:02.683Z,27.43
2022-08-11T08:07:02.682Z,27.50
2022-08-11T08:08:02.684Z,27.43
2022-08-11T08:09:02.683Z,27.39
2022-08-11T08:10:02.684Z,27.37
2022-08-11T08:11:02.684Z,27.43
2022-08-11T08:12:02.686Z,27.37
2022-08-11T08:13:02.683Z,27.43
2022-08-11T08:14:02.687Z,27.37
2022-08-11T08:15:02.689Z,27.34
2022-08-11T08:16:02.688Z,27.40
2022-08-11T08:17:02.690Z,27.47
2022-08-11T08:18:08.981Z,27.37
2022-08-11T08:19:02.690Z,27.41
2022-08-11T08:20:02.688Z,27.44
2022-08-11T08:21:02.687Z,27.49
2022-08-11T08:22:10.965Z,27.36
2022-08-11T08:23:02.689Z,27.50
2022-08-11T08:24:02.691Z,27.40
2022-08-11T08:25:02.689Z,27.44
2022-08-11T08:26:02.691Z,27.51
2022-08-11T08:27:02.702Z,27.36
2022-08-11T08:28:02.694Z,27.47
2022-08-11T08:29:02.691Z,27.46
2022-08-11T08:30:02.692Z,27.50
2022-08-11T08:31:02.692Z,27.51
2022-08-11T08:32:02.695Z,27.50
2022-08-11T08:33:02.694Z,27.50
2022-08-11T08:34:02.696Z,27.51
2022-08-11T08:35:02.695Z,27.46
2022-08-11T08:36:02.697Z,27.39
2022-08-11T08:37:02.698Z,27.37
2022-08-11T08:38:02.697Z,27.44
2022-08-11T08:39:02.696Z,27.44
2022-08-11T08:40:02.699Z,27.51
2022-08-11T08:41:02.699Z,27.47
2022-08-11T08:42:02.698Z,27.50
2022-08-11T08:43:02.698Z,27.49
2022-08-11T08:44:27.790Z,27.51
2022-08-11T08:45:02.699Z,27.49
2022-08-11T08:46:02.700Z,27.49
2022-08-11T08:47:02.703Z,27.37
2022-08-11T08:48:02.701Z,27.50
2022-08-11T08:49:02.700Z,27.44
2022-08-11T08:50:02.704Z,27.40
2022-08-11T08:51:02.702Z,27.41
2022-08-11T08:52:33.250Z,27.46
2022-08-11T08:53:02.703Z,27.34
2022-08-11T08:54:02.705Z,27.44
2022-08-11T08:55:02.710Z,27.49
2022-08-11T08:56:02.705Z,27.49
2022-08-11T08:57:02.709Z,27.47
2022-08-11T08:58:02.705Z,27.44
2022-08-11T08:59:02.705Z,27.47
2022-08-11T09:00:02.709Z,27.57
2022-08-11T09:01:02.757Z,27.50
2022-08-11T09:02:02.711Z,27.49
2022-08-11T09:03:22.876Z,27.51
2022-08-11T09:04:09.153Z,27.44
2022-08-11T09:05:02.709Z,27.49
2022-08-11T09:06:02.712Z,27.50
2022-08-11T09:07:02.714Z,27.47
2022-08-11T09:08:02.713Z,27.51
2022-08-11T09:09:02.711Z,27.49
2022-08-11T09:10:02.712Z,27.49
2022-08-11T09:11:02.714Z,27.46
2022-08-11T09:12:02.715Z,27.49
2022-08-11T09:13:02.714Z,27.47
2022-08-11T09:14:05.892Z,27.46
2022-08-11T09:15:02.713Z,27.47
2022-08-11T09:16:02.716Z,27.47
2022-08-11T09:17:02.715Z,27.50
2022-08-11T09:18:02.716Z,27.54
2022-08-11T09:19:02.715Z,27.47
2022-08-11T09:20:02.721Z,27.50
2022-08-11T09:21:02.717Z,27.51
2022-08-11T09:22:02.718Z,27.60
2022-08-11T09:24:01.968Z,27.49
2022-08-11T09:24:08.902Z,27.54
2022-08-11T09:25:02.718Z,27.50
2022-08-11T09:26:02.720Z,27.47
2022-08-11T09:27:02.722Z,27.50
2022-08-11T09:28:02.749Z,27.55
2022-08-11T09:29:02.723Z,27.50
2022-08-11T09:30:02.722Z,27.51
2022-08-11T09:31:02.721Z,27.49
2022-08-11T09:32:02.726Z,27.47
2022-08-11T09:33:02.722Z,27.51
2022-08-11T09:34:02.724Z,27.47
2022-08-11T09:35:02.724Z,27.57
2022-08-11T09:36:02.727Z,27.59
2022-08-11T09:37:02.726Z,27.59
2022-08-11T09:38:03.184Z,27.55
2022-08-11T09:39:02.727Z,27.55
2022-08-11T09:40:02.728Z,27.59
2022-08-11T09:41:02.727Z,27.55
2022-08-11T09:42:03.471Z,27.47
2022-08-11T09:43:02.727Z,27.51
2022-08-11T09:44:04.263Z,27.51
2022-08-11T09:45:02.733Z,27.50
2022-08-11T09:46:02.733Z,27.51
2022-08-11T09:47:02.730Z,27.47
2022-08-11T09:48:02.732Z,27.54
2022-08-11T09:49:02.730Z,27.47
2022-08-11T09:50:02.809Z,27.54
2022-08-11T09:51:02.734Z,27.46
2022-08-11T09:52:05.568Z,27.49
2022-08-11T09:53:35.835Z,27.54
2022-08-11T09:54:04.023Z,27.51
2022-08-11T09:55:02.737Z,27.51
2022-08-11T09:56:02.735Z,27.49
2022-08-11T09:57:05.368Z,27.49
2022-08-11T09:58:02.736Z,27.54
2022-08-11T09:59:02.736Z,27.55
2022-08-11T10:00:12.181Z,27.49
2022-08-11T10:01:02.852Z,27.49
2022-08-11T10:02:03.587Z,27.51
2022-08-11T10:03:02.755Z,27.63
2022-08-11T10:04:02.752Z,27.51
2022-08-11T10:05:02.745Z,27.57
2022-08-11T10:06:07.680Z,27.55
2022-08-11T10:07:04.186Z,27.46
2022-08-11T10:08:02.742Z,27.55
2022-08-11T10:09:02.742Z,27.51
2022-08-11T10:10:02.742Z,27.47
2022-08-11T10:11:02.743Z,27.50
2022-08-11T10:12:02.744Z,27.54
2022-08-11T10:13:02.743Z,27.50
2022-08-11T10:14:33.887Z,27.54
2022-08-11T10:15:02.745Z,27.54
2022-08-11T10:16:15.909Z,27.55
2022-08-11T10:17:02.750Z,27.51
2022-08-11T10:18:02.754Z,27.46
2022-08-11T10:19:02.747Z,27.54
2022-08-11T10:20:05.349Z,27.54
2022-08-11T10:21:02.748Z,27.49
2022-08-11T10:22:02.749Z,27.55
2022-08-11T10:23:02.749Z,27.51
2022-08-11T10:24:05.647Z,27.55
2022-08-11T10:25:02.753Z,27.54
2022-08-11T10:26:02.751Z,27.54
2022-08-11T10:27:02.749Z,27.51
2022-08-11T10:28:30.591Z,27.55
2022-08-11T10:29:13.188Z,27.51
2022-08-11T10:30:02.752Z,27.57
2022-08-11T10:31:02.752Z,27.59
2022-08-11T10:32:04.472Z,27.51
2022-08-11T10:33:02.753Z,27.51
2022-08-11T10:34:02.755Z,27.55
2022-08-11T10:35:02.756Z,27.54
2022-08-11T10:36:02.761Z,27.57
2022-08-11T10:37:02.755Z,27.60
2022-08-11T10:38:07.250Z,27.57
2022-08-11T10:39:02.757Z,27.55
2022-08-11T10:40:02.834Z,27.54
2022-08-11T10:41:02.758Z,27.54
2022-08-11T10:42:08.550Z,27.55
2022-08-11T10:43:03.102Z,27.55
2022-08-11T10:44:04.129Z,27.59
2022-08-11T10:45:02.760Z,27.57
2022-08-11T10:46:02.764Z,27.55
2022-08-11T10:47:02.760Z,27.60
2022-08-11T10:48:02.763Z,27.60
2022-08-11T10:49:02.764Z,27.50
2022-08-11T10:50:02.763Z,27.65
2022-08-11T10:51:02.765Z,27.57
2022-08-11T10:52:02.770Z,27.54
2022-08-11T10:53:02.763Z,27.60
2022-08-11T10:54:02.768Z,27.59
2022-08-11T10:55:02.766Z,27.57
2022-08-11T10:57:02.765Z,27.57
2022-08-11T10:58:04.749Z,27.60
2022-08-11T10:59:04.071Z,27.60
2022-08-11T11:00:02.770Z,27.59
2022-08-11T11:01:02.816Z,27.57
2022-08-11T11:02:02.773Z,27.60
2022-08-11T11:03:07.166Z,27.59
2022-08-11T11:04:02.772Z,27.55
2022-08-11T11:05:02.771Z,27.62
2022-08-11T11:06:27.502Z,27.57
2022-08-11T11:07:02.773Z,27.51
2022-08-11T11:08:02.772Z,27.63
2022-08-11T11:09:04.595Z,27.55
2022-08-11T11:10:02.774Z,27.57
2022-08-11T11:11:02.775Z,27.55
2022-08-11T11:12:02.778Z,27.60
2022-08-11T11:13:02.775Z,27.55
2022-08-11T11:14:03.693Z,27.63
2022-08-11T11:15:02.778Z,27.50
2022-08-11T11:16:02.778Z,27.60
2022-08-11T11:17:02.779Z,27.50
2022-08-11T11:18:02.777Z,27.54
2022-08-11T11:19:02.780Z,27.54
2022-08-11T11:20:02.783Z,27.60
2022-08-11T11:21:02.782Z,27.54
2022-08-11T11:22:02.780Z,27.66
2022-08-11T11:23:02.781Z,27.57
2022-08-11T11:24:02.781Z,27.54
2022-08-11T11:25:02.783Z,27.65
2022-08-11T11:26:02.783Z,27.57
2022-08-11T11:27:02.783Z,27.66
2022-08-11T11:28:02.787Z,27.62
2022-08-11T11:29:02.783Z,27.62
2022-08-11T11:30:02.785Z,27.51
2022-08-11T11:31:02.787Z,27.69
2022-08-11T11:32:02.785Z,27.59
2022-08-11T11:33:02.788Z,27.54
2022-08-11T11:34:06.341Z,27.63
2022-08-11T11:35:02.793Z,27.65
2022-08-11T11:36:02.789Z,27.66
2022-08-11T11:37:02.789Z,27.54
2022-08-11T11:38:04.955Z,27.62
2022-08-11T11:39:02.790Z,27.63
2022-08-11T11:40:02.789Z,27.66
2022-08-11T11:41:02.791Z,27.63
2022-08-11T11:42:02.792Z,27.75
2022-08-11T11:43:02.794Z,27.67
2022-08-11T11:44:02.793Z,27.62
2022-08-11T11:45:02.794Z,27.59
2022-08-11T11:46:02.795Z,27.60
2022-08-11T11:47:02.795Z,27.63
2022-08-11T11:48:02.803Z,27.60
2022-08-11T11:49:02.795Z,27.60
2022-08-11T11:50:02.795Z,27.65
2022-08-11T11:51:02.798Z,27.62
2022-08-11T11:52:02.797Z,27.67
2022-08-11T11:53:02.797Z,27.67
2022-08-11T11:54:02.799Z,27.67
2022-08-11T11:55:02.800Z,27.75
2022-08-11T11:56:02.804Z,27.66
2022-08-11T11:57:02.801Z,27.60
2022-08-11T11:58:02.977Z,27.63
2022-08-11T11:59:02.801Z,27.66
2022-08-11T12:00:02.809Z,27.69
2022-08-11T12:01:02.809Z,27.63
2022-08-11T12:02:11.927Z,27.69
2022-08-11T12:03:02.886Z,27.59
2022-08-11T12:04:02.805Z,27.65
2022-08-11T12:05:02.804Z,27.69
2022-08-11T12:06:02.805Z,27.75
2022-08-11T12:07:02.806Z,27.70
2022-08-11T12:08:05.204Z,27.74
2022-08-11T12:09:02.806Z,27.70
2022-08-11T12:10:02.807Z,27.74
2022-08-11T12:11:02.809Z,27.67
2022-08-11T12:12:02.809Z,27.72
2022-08-11T12:13:02.815Z,27.65
2022-08-11T12:14:02.809Z,27.66
2022-08-11T12:15:02.814Z,27.70
2022-08-11T12:16:31.875Z,27.69
2022-08-11T12:17:02.811Z,27.65
2022-08-11T12:18:02.813Z,27.74
2022-08-11T12:19:02.814Z,27.62
2022-08-11T12:20:02.817Z,27.69
2022-08-11T12:21:02.814Z,27.74
2022-08-11T12:22:02.814Z,27.72
2022-08-11T12:23:02.816Z,27.69
2022-08-11T12:24:04.618Z,27.84
2022-08-11T12:25:02.816Z,27.63
2022-08-11T12:26:25.954Z,27.69
2022-08-11T12:27:16.583Z,27.65
2022-08-11T12:28:02.819Z,27.70
2022-08-11T12:29:02.819Z,27.69
2022-08-11T12:30:02.820Z,27.70
2022-08-11T12:31:02.822Z,27.65
2022-08-11T12:32:02.820Z,27.66
2022-08-11T12:33:02.840Z,27.72
2022-08-11T12:34:02.824Z,27.77
2022-08-11T12:35:02.826Z,27.66
2022-08-11T12:36:02.825Z,27.75
2022-08-11T12:37:02.824Z,27.67
2022-08-11T12:38:09.453Z,27.67
2022-08-11T12:39:06.158Z,27.72
2022-08-11T12:40:16.401Z,27.77
2022-08-11T12:41:18.387Z,27.74
2022-08-11T12:42:02.901Z,27.75
2022-08-11T12:43:04.044Z,27.72
2022-08-11T12:44:02.828Z,27.67
2022-08-11T12:45:02.830Z,27.72
2022-08-11T12:46:02.829Z,27.72
2022-08-11T12:47:02.830Z,27.72
2022-08-11T12:48:48.578Z,27.72
2022-08-11T12:49:03.380Z,27.72
2022-08-11T12:50:02.834Z,27.77
2022-08-11T12:51:02.835Z,27.66
2022-08-11T12:52:13.376Z,27.75
2022-08-11T12:53:02.834Z,27.72